sensor_id;sensor_type;location;lat;lon;timestamp;temperature;humidity
22081;DHT22;11207;59.512;18.050;2023-07-13T00:01:50;16.20;99.90
22081;DHT22;11207;59.512;18.050;2023-07-13T00:04:22;16.20;99.90
22081;DHT22;11207;59.512;18.050;2023-07-13T00:06:49;16.10;99.90
22081;DHT22;11207;59.512;18.050;2023-07-13T00:09:16;16.10;99.90
22081;DHT22;11207;59.512;18.050;2023-07-13T00:11:43;16.20;99.90
22081;DHT22;11207;59.512;18.050;2023-07-13T00:14:10;16.10;99.90
22081;DHT22;11207;59.512;18.050;2023-07-13T00:16:38;16.10;99.90
22081;DHT22;11207;59.512;18.050;2023-07-13T00:19:04;15.90;99.90
22081;DHT22;11207;59.512;18.050;2023-07-13T00:21:30;16.00;99.90
22081;DHT22;11207;59.512;18.050;2023-07-13T00:23:56;16.00;99.90
22081;DHT22;11207;59.512;18.050;2023-07-13T00:26:22;15.90;99.90
22081;DHT22;11207;59.512;18.050;2023-07-13T00:28:48;15.80;99.90
22081;DHT22;11207;59.512;18.050;2023-07-13T00:31:14;15.80;99.90
22081;DHT22;11207;59.512;18.050;2023-07-13T00:33:40;15.80;99.90
22081;DHT22;11207;59.512;18.050;2023-07-13T00:36:06;15.80;99.90
22081;DHT22;11207;59.512;18.050;2023-07-13T00:38:31;15.70;99.90
22081;DHT22;11207;59.512;18.050;2023-07-13T00:40:57;15.70;99.90
22081;DHT22;11207;59.512;18.050;2023-07-13T00:43:26;15.80;99.90
22081;DHT22;11207;59.512;18.050;2023-07-13T00:48:20;15.60;99.90
22081;DHT22;11207;59.512;18.050;2023-07-13T00:50:50;15.60;99.90
22081;DHT22;11207;59.512;18.050;2023-07-13T00:53:17;15.60;99.90
22081;DHT22;11207;59.512;18.050;2023-07-13T00:55:44;15.70;99.90
22081;DHT22;11207;59.512;18.050;2023-07-13T00:58:10;15.70;99.90
22081;DHT22;11207;59.512;18.050;2023-07-13T01:00:36;15.70;99.90
22081;DHT22;11207;59.512;18.050;2023-07-13T01:03:04;15.70;99.90
22081;DHT22;11207;59.512;18.050;2023-07-13T01:05:32;15.70;99.90
22081;DHT22;11207;59.512;18.050;2023-07-13T01:07:59;15.80;99.90
22081;DHT22;11207;59.512;18.050;2023-07-13T01:10:26;15.80;99.90
22081;DHT22;11207;59.512;18.050;2023-07-13T01:12:53;15.80;99.90
22081;DHT22;11207;59.512;18.050;2023-07-13T01:15:38;15.80;99.90
22081;DHT22;11207;59.512;18.050;2023-07-13T01:18:15;15.70;99.90
22081;DHT22;11207;59.512;18.050;2023-07-13T01:20:41;15.80;99.90
22081;DHT22;11207;59.512;18.050;2023-07-13T01:23:09;15.80;99.90
22081;DHT22;11207;59.512;18.050;2023-07-13T01:25:36;15.80;99.90
22081;DHT22;11207;59.512;18.050;2023-07-13T01:28:06;15.80;99.90
22081;DHT22;11207;59.512;18.050;2023-07-13T01:30:35;15.80;99.90
22081;DHT22;11207;59.512;18.050;2023-07-13T01:33:00;15.90;99.90
22081;DHT22;11207;59.512;18.050;2023-07-13T01:35:27;15.90;99.90
22081;DHT22;11207;59.512;18.050;2023-07-13T01:37:53;16.00;99.90
22081;DHT22;11207;59.512;18.050;2023-07-13T01:40:19;15.90;99.90
22081;DHT22;11207;59.512;18.050;2023-07-13T01:42:45;15.90;99.90
22081;DHT22;11207;59.512;18.050;2023-07-13T01:45:11;15.80;99.90
22081;DHT22;11207;59.512;18.050;2023-07-13T01:47:36;15.90;99.90
22081;DHT22;11207;59.512;18.050;2023-07-13T01:50:03;16.00;99.90
22081;DHT22;11207;59.512;18.050;2023-07-13T01:52:28;15.90;99.90
22081;DHT22;11207;59.512;18.050;2023-07-13T01:54:54;15.90;99.90
22081;DHT22;11207;59.512;18.050;2023-07-13T01:57:19;15.90;99.90
22081;DHT22;11207;59.512;18.050;2023-07-13T01:59:45;16.00;99.90
22081;DHT22;11207;59.512;18.050;2023-07-13T02:02:10;15.90;99.90
22081;DHT22;11207;59.512;18.050;2023-07-13T02:04:36;15.90;99.90
22081;DHT22;11207;59.512;18.050;2023-07-13T02:07:02;15.80;99.90
22081;DHT22;11207;59.512;18.050;2023-07-13T02:09:28;15.90;99.90
22081;DHT22;11207;59.512;18.050;2023-07-13T02:11:53;15.90;99.90
22081;DHT22;11207;59.512;18.050;2023-07-13T02:14:19;15.90;99.90
22081;DHT22;11207;59.512;18.050;2023-07-13T02:16:44;15.80;99.90
22081;DHT22;11207;59.512;18.050;2023-07-13T02:19:10;15.80;99.90
22081;DHT22;11207;59.512;18.050;2023-07-13T02:21:35;15.80;99.90
22081;DHT22;11207;59.512;18.050;2023-07-13T02:24:01;15.80;99.90
22081;DHT22;11207;59.512;18.050;2023-07-13T02:26:27;15.70;99.90
22081;DHT22;11207;59.512;18.050;2023-07-13T02:28:53;15.70;99.90
22081;DHT22;11207;59.512;18.050;2023-07-13T02:31:19;15.60;99.90
22081;DHT22;11207;59.512;18.050;2023-07-13T02:33:45;15.60;99.90
22081;DHT22;11207;59.512;18.050;2023-07-13T02:36:11;15.50;99.90
22081;DHT22;11207;59.512;18.050;2023-07-13T02:38:37;15.60;99.90
22081;DHT22;11207;59.512;18.050;2023-07-13T02:41:04;15.60;99.90
22081;DHT22;11207;59.512;18.050;2023-07-13T02:43:30;15.50;99.90
22081;DHT22;11207;59.512;18.050;2023-07-13T02:45:56;15.50;99.90
22081;DHT22;11207;59.512;18.050;2023-07-13T02:48:21;15.50;99.90
22081;DHT22;11207;59.512;18.050;2023-07-13T02:50:47;15.40;99.90
22081;DHT22;11207;59.512;18.050;2023-07-13T02:53:13;15.40;99.90
22081;DHT22;11207;59.512;18.050;2023-07-13T02:55:38;15.40;99.90
22081;DHT22;11207;59.512;18.050;2023-07-13T02:58:06;15.40;99.90
22081;DHT22;11207;59.512;18.050;2023-07-13T03:00:32;15.40;99.90
22081;DHT22;11207;59.512;18.050;2023-07-13T03:02:58;15.30;99.90
22081;DHT22;11207;59.512;18.050;2023-07-13T03:05:24;15.30;99.90
22081;DHT22;11207;59.512;18.050;2023-07-13T03:07:49;15.30;99.90
22081;DHT22;11207;59.512;18.050;2023-07-13T03:10:15;15.30;99.90
22081;DHT22;11207;59.512;18.050;2023-07-13T03:12:41;15.20;99.90
22081;DHT22;11207;59.512;18.050;2023-07-13T03:15:07;15.30;99.90
22081;DHT22;11207;59.512;18.050;2023-07-13T03:17:33;15.30;99.90
22081;DHT22;11207;59.512;18.050;2023-07-13T03:19:58;15.30;99.90
22081;DHT22;11207;59.512;18.050;2023-07-13T03:22:24;15.30;99.90
22081;DHT22;11207;59.512;18.050;2023-07-13T03:24:49;15.30;99.90
22081;DHT22;11207;59.512;18.050;2023-07-13T03:27:17;15.20;99.90
22081;DHT22;11207;59.512;18.050;2023-07-13T03:29:42;15.30;99.90
22081;DHT22;11207;59.512;18.050;2023-07-13T03:32:09;15.30;99.90
22081;DHT22;11207;59.512;18.050;2023-07-13T03:34:35;15.40;99.90
22081;DHT22;11207;59.512;18.050;2023-07-13T03:37:00;15.30;99.90
22081;DHT22;11207;59.512;18.050;2023-07-13T03:39:26;15.30;99.90
22081;DHT22;11207;59.512;18.050;2023-07-13T03:41:52;15.20;99.90
22081;DHT22;11207;59.512;18.050;2023-07-13T03:44:19;15.30;99.90
22081;DHT22;11207;59.512;18.050;2023-07-13T03:46:45;15.30;99.90
22081;DHT22;11207;59.512;18.050;2023-07-13T03:49:11;15.30;99.90
22081;DHT22;11207;59.512;18.050;2023-07-13T03:51:36;15.40;99.90
22081;DHT22;11207;59.512;18.050;2023-07-13T03:54:03;15.40;99.90
22081;DHT22;11207;59.512;18.050;2023-07-13T03:56:29;15.40;99.90
22081;DHT22;11207;59.512;18.050;2023-07-13T03:58:56;15.60;99.90
22081;DHT22;11207;59.512;18.050;2023-07-13T04:01:23;15.70;99.90
22081;DHT22;11207;59.512;18.050;2023-07-13T04:03:50;15.60;99.90
22081;DHT22;11207;59.512;18.050;2023-07-13T04:06:22;15.60;99.90
22081;DHT22;11207;59.512;18.050;2023-07-13T04:08:52;15.70;99.90
22081;DHT22;11207;59.512;18.050;2023-07-13T04:11:19;15.70;99.90
22081;DHT22;11207;59.512;18.050;2023-07-13T04:13:46;15.70;99.90
22081;DHT22;11207;59.512;18.050;2023-07-13T04:16:13;15.80;99.90
22081;DHT22;11207;59.512;18.050;2023-07-13T04:18:39;15.80;99.90
22081;DHT22;11207;59.512;18.050;2023-07-13T04:21:04;15.90;99.90
22081;DHT22;11207;59.512;18.050;2023-07-13T04:23:30;15.90;99.90
22081;DHT22;11207;59.512;18.050;2023-07-13T04:25:55;15.90;99.90
22081;DHT22;11207;59.512;18.050;2023-07-13T04:28:23;16.10;99.90
22081;DHT22;11207;59.512;18.050;2023-07-13T04:30:50;16.00;99.90
22081;DHT22;11207;59.512;18.050;2023-07-13T04:33:16;16.10;99.90
22081;DHT22;11207;59.512;18.050;2023-07-13T04:35:43;16.10;99.90
22081;DHT22;11207;59.512;18.050;2023-07-13T04:38:08;16.10;99.90
22081;DHT22;11207;59.512;18.050;2023-07-13T04:40:36;16.20;99.90
22081;DHT22;11207;59.512;18.050;2023-07-13T04:43:02;16.30;99.90
22081;DHT22;11207;59.512;18.050;2023-07-13T04:45:28;16.40;99.90
22081;DHT22;11207;59.512;18.050;2023-07-13T04:47:53;16.60;99.90
22081;DHT22;11207;59.512;18.050;2023-07-13T04:50:19;16.80;99.90
22081;DHT22;11207;59.512;18.050;2023-07-13T04:52:49;17.30;99.90
22081;DHT22;11207;59.512;18.050;2023-07-13T04:55:15;17.70;99.90
22081;DHT22;11207;59.512;18.050;2023-07-13T04:57:41;18.00;99.90
22081;DHT22;11207;59.512;18.050;2023-07-13T05:00:07;18.30;99.90
22081;DHT22;11207;59.512;18.050;2023-07-13T05:02:33;18.50;99.90
22081;DHT22;11207;59.512;18.050;2023-07-13T05:05:01;18.70;99.90
22081;DHT22;11207;59.512;18.050;2023-07-13T05:07:26;18.80;99.90
22081;DHT22;11207;59.512;18.050;2023-07-13T05:09:52;18.90;99.90
22081;DHT22;11207;59.512;18.050;2023-07-13T05:12:19;19.10;99.90
22081;DHT22;11207;59.512;18.050;2023-07-13T05:14:44;19.20;99.90
22081;DHT22;11207;59.512;18.050;2023-07-13T05:17:10;19.30;99.90
22081;DHT22;11207;59.512;18.050;2023-07-13T05:19:37;19.30;99.90
22081;DHT22;11207;59.512;18.050;2023-07-13T05:22:04;19.40;99.90
22081;DHT22;11207;59.512;18.050;2023-07-13T05:24:30;19.60;99.90
22081;DHT22;11207;59.512;18.050;2023-07-13T05:26:55;19.20;99.90
22081;DHT22;11207;59.512;18.050;2023-07-13T05:29:21;19.40;99.90
22081;DHT22;11207;59.512;18.050;2023-07-13T05:31:48;19.40;99.90
22081;DHT22;11207;59.512;18.050;2023-07-13T05:34:14;19.60;99.90
22081;DHT22;11207;59.512;18.050;2023-07-13T05:36:40;19.90;99.90
22081;DHT22;11207;59.512;18.050;2023-07-13T05:39:06;19.70;99.90
22081;DHT22;11207;59.512;18.050;2023-07-13T05:41:32;19.70;99.90
22081;DHT22;11207;59.512;18.050;2023-07-13T05:43:57;19.50;99.90
22081;DHT22;11207;59.512;18.050;2023-07-13T05:46:23;19.20;99.90
22081;DHT22;11207;59.512;18.050;2023-07-13T05:48:48;19.00;99.90
22081;DHT22;11207;59.512;18.050;2023-07-13T05:51:14;18.90;99.90
22081;DHT22;11207;59.512;18.050;2023-07-13T05:53:40;18.90;99.90
22081;DHT22;11207;59.512;18.050;2023-07-13T05:56:05;19.00;99.90
22081;DHT22;11207;59.512;18.050;2023-07-13T05:58:31;19.00;99.90
22081;DHT22;11207;59.512;18.050;2023-07-13T06:01:05;18.80;99.90
22081;DHT22;11207;59.512;18.050;2023-07-13T06:03:32;18.70;99.90
22081;DHT22;11207;59.512;18.050;2023-07-13T06:05:58;18.90;99.90
22081;DHT22;11207;59.512;18.050;2023-07-13T06:08:26;18.90;99.90
22081;DHT22;11207;59.512;18.050;2023-07-13T06:10:52;19.00;99.90
22081;DHT22;11207;59.512;18.050;2023-07-13T06:13:17;19.10;99.90
22081;DHT22;11207;59.512;18.050;2023-07-13T06:15:50;19.10;99.90
22081;DHT22;11207;59.512;18.050;2023-07-13T06:18:16;19.20;99.90
22081;DHT22;11207;59.512;18.050;2023-07-13T06:20:42;19.40;99.90
22081;DHT22;11207;59.512;18.050;2023-07-13T06:23:07;19.60;99.90
22081;DHT22;11207;59.512;18.050;2023-07-13T06:25:33;19.70;99.90
22081;DHT22;11207;59.512;18.050;2023-07-13T06:27:59;19.60;99.90
22081;DHT22;11207;59.512;18.050;2023-07-13T06:30:26;19.70;99.90
22081;DHT22;11207;59.512;18.050;2023-07-13T06:32:52;19.90;99.90
22081;DHT22;11207;59.512;18.050;2023-07-13T06:35:18;20.00;99.90
22081;DHT22;11207;59.512;18.050;2023-07-13T06:37:44;20.10;99.90
22081;DHT22;11207;59.512;18.050;2023-07-13T06:40:10;20.40;99.90
22081;DHT22;11207;59.512;18.050;2023-07-13T06:42:35;20.40;99.90
22081;DHT22;11207;59.512;18.050;2023-07-13T06:45:01;20.30;99.90
22081;DHT22;11207;59.512;18.050;2023-07-13T06:47:27;20.40;99.90
22081;DHT22;11207;59.512;18.050;2023-07-13T06:49:53;20.50;99.90
22081;DHT22;11207;59.512;18.050;2023-07-13T06:52:19;20.20;99.90
22081;DHT22;11207;59.512;18.050;2023-07-13T06:54:45;20.20;99.90
22081;DHT22;11207;59.512;18.050;2023-07-13T06:57:11;20.10;99.90
22081;DHT22;11207;59.512;18.050;2023-07-13T06:59:36;20.10;99.90
22081;DHT22;11207;59.512;18.050;2023-07-13T07:02:02;19.80;99.90
22081;DHT22;11207;59.512;18.050;2023-07-13T07:04:28;19.80;99.90
22081;DHT22;11207;59.512;18.050;2023-07-13T07:06:54;19.90;99.90
22081;DHT22;11207;59.512;18.050;2023-07-13T07:09:20;19.60;99.90
22081;DHT22;11207;59.512;18.050;2023-07-13T07:11:45;19.50;99.90
22081;DHT22;11207;59.512;18.050;2023-07-13T07:14:11;19.40;99.90
22081;DHT22;11207;59.512;18.050;2023-07-13T07:16:36;19.60;99.90
22081;DHT22;11207;59.512;18.050;2023-07-13T07:19:02;20.00;99.90
22081;DHT22;11207;59.512;18.050;2023-07-13T07:21:28;20.30;99.90
22081;DHT22;11207;59.512;18.050;2023-07-13T07:23:53;20.60;99.90
22081;DHT22;11207;59.512;18.050;2023-07-13T07:26:19;20.90;99.90
22081;DHT22;11207;59.512;18.050;2023-07-13T07:28:45;21.00;99.90
22081;DHT22;11207;59.512;18.050;2023-07-13T07:31:11;21.10;99.90
22081;DHT22;11207;59.512;18.050;2023-07-13T07:33:36;21.20;99.90
22081;DHT22;11207;59.512;18.050;2023-07-13T07:36:02;21.20;99.90
22081;DHT22;11207;59.512;18.050;2023-07-13T07:38:29;21.40;99.90
22081;DHT22;11207;59.512;18.050;2023-07-13T07:40:54;21.50;99.90
22081;DHT22;11207;59.512;18.050;2023-07-13T07:43:20;21.60;99.90
22081;DHT22;11207;59.512;18.050;2023-07-13T07:45:46;21.50;99.90
22081;DHT22;11207;59.512;18.050;2023-07-13T07:48:12;21.40;99.90
22081;DHT22;11207;59.512;18.050;2023-07-13T07:50:37;21.60;99.90
22081;DHT22;11207;59.512;18.050;2023-07-13T07:53:05;21.90;99.90
22081;DHT22;11207;59.512;18.050;2023-07-13T07:55:33;22.10;99.90
22081;DHT22;11207;59.512;18.050;2023-07-13T07:57:59;22.30;99.90
22081;DHT22;11207;59.512;18.050;2023-07-13T08:00:25;22.30;99.90
22081;DHT22;11207;59.512;18.050;2023-07-13T08:02:50;22.60;99.90
22081;DHT22;11207;59.512;18.050;2023-07-13T08:05:16;22.50;99.90
22081;DHT22;11207;59.512;18.050;2023-07-13T08:07:42;22.20;99.90
22081;DHT22;11207;59.512;18.050;2023-07-13T08:10:08;22.40;99.90
22081;DHT22;11207;59.512;18.050;2023-07-13T08:12:38;22.60;99.90
22081;DHT22;11207;59.512;18.050;2023-07-13T08:15:06;22.60;99.90
22081;DHT22;11207;59.512;18.050;2023-07-13T08:17:31;22.50;99.90
22081;DHT22;11207;59.512;18.050;2023-07-13T08:19:57;22.60;99.90
22081;DHT22;11207;59.512;18.050;2023-07-13T08:22:23;22.70;99.90
22081;DHT22;11207;59.512;18.050;2023-07-13T08:24:49;22.80;99.90
22081;DHT22;11207;59.512;18.050;2023-07-13T08:27:24;23.00;99.90
22081;DHT22;11207;59.512;18.050;2023-07-13T08:29:51;22.90;99.90
22081;DHT22;11207;59.512;18.050;2023-07-13T08:32:17;22.70;99.90
22081;DHT22;11207;59.512;18.050;2023-07-13T08:34:43;22.60;99.90
22081;DHT22;11207;59.512;18.050;2023-07-13T08:37:09;22.70;99.90
22081;DHT22;11207;59.512;18.050;2023-07-13T08:39:35;22.80;99.90
22081;DHT22;11207;59.512;18.050;2023-07-13T08:47:40;23.30;99.90
22081;DHT22;11207;59.512;18.050;2023-07-13T08:50:13;23.50;99.90
22081;DHT22;11207;59.512;18.050;2023-07-13T08:52:41;23.30;99.90
22081;DHT22;11207;59.512;18.050;2023-07-13T08:55:21;23.90;99.90
22081;DHT22;11207;59.512;18.050;2023-07-13T08:57:53;24.00;99.60
22081;DHT22;11207;59.512;18.050;2023-07-13T09:00:19;24.60;99.80
22081;DHT22;11207;59.512;18.050;2023-07-13T09:05:36;24.60;97.40
22081;DHT22;11207;59.512;18.050;2023-07-13T09:11:27;24.10;97.00
22081;DHT22;11207;59.512;18.050;2023-07-13T09:16:39;23.60;99.90
22081;DHT22;11207;59.512;18.050;2023-07-13T09:19:08;24.00;99.10
22081;DHT22;11207;59.512;18.050;2023-07-13T09:21:42;24.20;98.90
22081;DHT22;11207;59.512;18.050;2023-07-13T09:24:28;24.60;99.90
22081;DHT22;11207;59.512;18.050;2023-07-13T09:26:56;24.70;97.20
22081;DHT22;11207;59.512;18.050;2023-07-13T09:29:28;24.40;96.60
22081;DHT22;11207;59.512;18.050;2023-07-13T09:32:00;23.90;97.90
22081;DHT22;11207;59.512;18.050;2023-07-13T09:34:28;23.90;97.20
22081;DHT22;11207;59.512;18.050;2023-07-13T09:36:56;23.80;96.90
22081;DHT22;11207;59.512;18.050;2023-07-13T09:39:32;23.70;98.50
22081;DHT22;11207;59.512;18.050;2023-07-13T09:42:07;24.30;96.80
22081;DHT22;11207;59.512;18.050;2023-07-13T09:44:49;24.10;98.40
22081;DHT22;11207;59.512;18.050;2023-07-13T09:47:17;23.50;95.80
22081;DHT22;11207;59.512;18.050;2023-07-13T09:49:43;23.20;98.00
22081;DHT22;11207;59.512;18.050;2023-07-13T09:52:14;23.40;99.60
22081;DHT22;11207;59.512;18.050;2023-07-13T09:54:45;23.30;98.30
22081;DHT22;11207;59.512;18.050;2023-07-13T09:57:15;23.40;97.80
22081;DHT22;11207;59.512;18.050;2023-07-13T09:59:45;23.70;98.10
22081;DHT22;11207;59.512;18.050;2023-07-13T10:02:34;23.80;97.90
22081;DHT22;11207;59.512;18.050;2023-07-13T10:05:05;23.70;98.40
22081;DHT22;11207;59.512;18.050;2023-07-13T10:07:38;23.50;99.90
22081;DHT22;11207;59.512;18.050;2023-07-13T10:10:17;23.30;98.80
22081;DHT22;11207;59.512;18.050;2023-07-13T10:12:44;23.00;99.10
22081;DHT22;11207;59.512;18.050;2023-07-13T10:15:16;22.70;98.50
22081;DHT22;11207;59.512;18.050;2023-07-13T10:17:44;22.70;99.60
22081;DHT22;11207;59.512;18.050;2023-07-13T10:20:09;22.40;98.80
22081;DHT22;11207;59.512;18.050;2023-07-13T10:23:04;22.50;99.90
22081;DHT22;11207;59.512;18.050;2023-07-13T10:25:37;22.70;99.90
22081;DHT22;11207;59.512;18.050;2023-07-13T10:30:39;22.90;98.60
22081;DHT22;11207;59.512;18.050;2023-07-13T10:33:10;23.20;98.60
22081;DHT22;11207;59.512;18.050;2023-07-13T10:35:37;23.10;98.40
22081;DHT22;11207;59.512;18.050;2023-07-13T10:38:11;23.30;97.60
22081;DHT22;11207;59.512;18.050;2023-07-13T10:43:18;24.20;97.40
22081;DHT22;11207;59.512;18.050;2023-07-13T10:45:46;24.30;97.10
22081;DHT22;11207;59.512;18.050;2023-07-13T10:48:16;24.60;97.50
22081;DHT22;11207;59.512;18.050;2023-07-13T10:50:44;24.90;96.40
22081;DHT22;11207;59.512;18.050;2023-07-13T10:53:27;25.00;96.80
22081;DHT22;11207;59.512;18.050;2023-07-13T10:58:28;24.20;96.20
22081;DHT22;11207;59.512;18.050;2023-07-13T11:03:30;23.80;95.20
22081;DHT22;11207;59.512;18.050;2023-07-13T11:06:11;23.40;95.40
22081;DHT22;11207;59.512;18.050;2023-07-13T11:18:48;23.70;96.40
22081;DHT22;11207;59.512;18.050;2023-07-13T11:21:20;23.60;95.40
22081;DHT22;11207;59.512;18.050;2023-07-13T11:23:53;23.70;95.20
22081;DHT22;11207;59.512;18.050;2023-07-13T11:32:01;24.00;95.70
22081;DHT22;11207;59.512;18.050;2023-07-13T11:34:43;23.70;94.60
22081;DHT22;11207;59.512;18.050;2023-07-13T11:37:16;23.80;95.90
22081;DHT22;11207;59.512;18.050;2023-07-13T11:39:44;23.70;95.80
22081;DHT22;11207;59.512;18.050;2023-07-13T11:42:13;24.00;96.10
22081;DHT22;11207;59.512;18.050;2023-07-13T11:44:47;24.30;98.30
22081;DHT22;11207;59.512;18.050;2023-07-13T11:47:19;24.70;94.00
22081;DHT22;11207;59.512;18.050;2023-07-13T11:49:55;25.10;96.10
22081;DHT22;11207;59.512;18.050;2023-07-13T11:52:36;25.30;95.00
22081;DHT22;11207;59.512;18.050;2023-07-13T11:55:08;25.30;93.90
22081;DHT22;11207;59.512;18.050;2023-07-13T11:57:49;25.80;94.80
22081;DHT22;11207;59.512;18.050;2023-07-13T12:00:18;26.30;96.30
22081;DHT22;11207;59.512;18.050;2023-07-13T12:02:47;26.60;92.90
22081;DHT22;11207;59.512;18.050;2023-07-13T12:05:16;26.00;88.90
22081;DHT22;11207;59.512;18.050;2023-07-13T12:07:49;25.50;91.10
22081;DHT22;11207;59.512;18.050;2023-07-13T12:10:24;25.60;93.40
22081;DHT22;11207;59.512;18.050;2023-07-13T12:12:58;25.60;92.50
22081;DHT22;11207;59.512;18.050;2023-07-13T12:15:38;25.80;91.80
22081;DHT22;11207;59.512;18.050;2023-07-13T12:18:20;25.70;91.30
22081;DHT22;11207;59.512;18.050;2023-07-13T12:20:47;25.50;91.00
22081;DHT22;11207;59.512;18.050;2023-07-13T12:23:22;24.90;90.70
22081;DHT22;11207;59.512;18.050;2023-07-13T12:25:49;24.60;90.50
22081;DHT22;11207;59.512;18.050;2023-07-13T12:29:13;24.30;93.80
22081;DHT22;11207;59.512;18.050;2023-07-13T12:34:05;24.50;92.70
22081;DHT22;11207;59.512;18.050;2023-07-13T12:36:36;24.30;92.40
22081;DHT22;11207;59.512;18.050;2023-07-13T12:39:25;24.10;92.40
22081;DHT22;11207;59.512;18.050;2023-07-13T12:41:53;24.00;92.00
22081;DHT22;11207;59.512;18.050;2023-07-13T12:44:28;23.70;93.20
22081;DHT22;11207;59.512;18.050;2023-07-13T12:46:57;24.00;93.90
22081;DHT22;11207;59.512;18.050;2023-07-13T12:49:27;23.70;93.50
22081;DHT22;11207;59.512;18.050;2023-07-13T12:51:59;23.60;94.50
22081;DHT22;11207;59.512;18.050;2023-07-13T12:54:26;23.40;94.20
22081;DHT22;11207;59.512;18.050;2023-07-13T12:56:53;23.50;95.30
22081;DHT22;11207;59.512;18.050;2023-07-13T12:59:22;23.60;95.50
22081;DHT22;11207;59.512;18.050;2023-07-13T13:01:49;23.90;94.60
22081;DHT22;11207;59.512;18.050;2023-07-13T13:04:15;24.00;93.50
22081;DHT22;11207;59.512;18.050;2023-07-13T13:06:41;23.70;93.10
22081;DHT22;11207;59.512;18.050;2023-07-13T13:09:14;23.50;94.40
22081;DHT22;11207;59.512;18.050;2023-07-13T13:11:40;23.50;94.80
22081;DHT22;11207;59.512;18.050;2023-07-13T13:14:07;23.40;94.30
22081;DHT22;11207;59.512;18.050;2023-07-13T13:16:53;23.20;95.00
22081;DHT22;11207;59.512;18.050;2023-07-13T13:19:24;23.10;95.20
22081;DHT22;11207;59.512;18.050;2023-07-13T13:21:51;23.00;93.90
22081;DHT22;11207;59.512;18.050;2023-07-13T13:24:20;23.00;95.00
22081;DHT22;11207;59.512;18.050;2023-07-13T13:26:47;23.00;95.60
22081;DHT22;11207;59.512;18.050;2023-07-13T13:29:20;23.20;96.10
22081;DHT22;11207;59.512;18.050;2023-07-13T13:31:46;23.50;96.10
22081;DHT22;11207;59.512;18.050;2023-07-13T13:34:17;23.90;95.30
22081;DHT22;11207;59.512;18.050;2023-07-13T13:36:44;24.00;94.00
22081;DHT22;11207;59.512;18.050;2023-07-13T13:39:23;23.90;94.50
22081;DHT22;11207;59.512;18.050;2023-07-13T13:41:51;24.00;94.70
22081;DHT22;11207;59.512;18.050;2023-07-13T13:44:17;23.80;93.70
22081;DHT22;11207;59.512;18.050;2023-07-13T13:46:46;23.70;94.40
22081;DHT22;11207;59.512;18.050;2023-07-13T13:49:15;23.70;94.50
22081;DHT22;11207;59.512;18.050;2023-07-13T13:51:42;23.60;94.70
22081;DHT22;11207;59.512;18.050;2023-07-13T13:54:15;24.00;94.80
22081;DHT22;11207;59.512;18.050;2023-07-13T13:56:43;24.10;92.60
22081;DHT22;11207;59.512;18.050;2023-07-13T13:59:09;24.20;91.70
22081;DHT22;11207;59.512;18.050;2023-07-13T14:01:35;24.20;92.20
22081;DHT22;11207;59.512;18.050;2023-07-13T14:04:01;24.20;90.60
22081;DHT22;11207;59.512;18.050;2023-07-13T14:06:26;24.20;91.60
22081;DHT22;11207;59.512;18.050;2023-07-13T14:08:53;24.30;90.80
22081;DHT22;11207;59.512;18.050;2023-07-13T14:11:21;24.30;91.20
22081;DHT22;11207;59.512;18.050;2023-07-13T14:13:55;24.40;91.20
22081;DHT22;11207;59.512;18.050;2023-07-13T14:16:26;24.50;91.40
22081;DHT22;11207;59.512;18.050;2023-07-13T14:18:53;24.60;91.40
22081;DHT22;11207;59.512;18.050;2023-07-13T14:21:21;24.40;90.80
22081;DHT22;11207;59.512;18.050;2023-07-13T14:23:47;24.10;90.70
22081;DHT22;11207;59.512;18.050;2023-07-13T14:26:15;23.90;90.50
22081;DHT22;11207;59.512;18.050;2023-07-13T14:28:44;23.80;92.60
22081;DHT22;11207;59.512;18.050;2023-07-13T14:31:11;23.70;93.10
22081;DHT22;11207;59.512;18.050;2023-07-13T14:33:37;23.50;92.10
22081;DHT22;11207;59.512;18.050;2023-07-13T14:36:23;23.30;92.30
22081;DHT22;11207;59.512;18.050;2023-07-13T14:38:50;23.20;93.30
22081;DHT22;11207;59.512;18.050;2023-07-13T14:41:16;23.10;93.20
22081;DHT22;11207;59.512;18.050;2023-07-13T14:43:41;23.00;93.40
22081;DHT22;11207;59.512;18.050;2023-07-13T14:46:16;22.90;94.50
22081;DHT22;11207;59.512;18.050;2023-07-13T14:48:44;22.90;94.50
22081;DHT22;11207;59.512;18.050;2023-07-13T14:51:09;22.80;94.80
22081;DHT22;11207;59.512;18.050;2023-07-13T14:53:35;22.70;94.90
22081;DHT22;11207;59.512;18.050;2023-07-13T14:56:11;22.70;95.20
22081;DHT22;11207;59.512;18.050;2023-07-13T14:58:37;22.70;94.00
22081;DHT22;11207;59.512;18.050;2023-07-13T15:01:13;22.60;93.20
22081;DHT22;11207;59.512;18.050;2023-07-13T15:03:44;22.50;93.80
22081;DHT22;11207;59.512;18.050;2023-07-13T15:06:13;22.50;94.60
22081;DHT22;11207;59.512;18.050;2023-07-13T15:08:39;22.50;94.20
22081;DHT22;11207;59.512;18.050;2023-07-13T15:11:07;22.40;94.90
22081;DHT22;11207;59.512;18.050;2023-07-13T15:13:33;22.50;94.60
22081;DHT22;11207;59.512;18.050;2023-07-13T15:16:00;22.60;94.30
22081;DHT22;11207;59.512;18.050;2023-07-13T15:18:26;22.80;93.70
22081;DHT22;11207;59.512;18.050;2023-07-13T15:20:53;23.00;93.80
22081;DHT22;11207;59.512;18.050;2023-07-13T15:23:22;23.00;93.30
22081;DHT22;11207;59.512;18.050;2023-07-13T15:25:51;22.90;94.20
22081;DHT22;11207;59.512;18.050;2023-07-13T15:28:17;22.90;94.70
22081;DHT22;11207;59.512;18.050;2023-07-13T15:30:45;22.90;94.00
22081;DHT22;11207;59.512;18.050;2023-07-13T15:35:39;23.00;94.00
22081;DHT22;11207;59.512;18.050;2023-07-13T15:38:19;23.00;94.40
22081;DHT22;11207;59.512;18.050;2023-07-13T15:40:46;23.10;93.90
22081;DHT22;11207;59.512;18.050;2023-07-13T15:43:13;23.00;94.00
22081;DHT22;11207;59.512;18.050;2023-07-13T15:45:39;22.80;93.50
22081;DHT22;11207;59.512;18.050;2023-07-13T15:48:20;22.80;94.30
22081;DHT22;11207;59.512;18.050;2023-07-13T15:50:51;22.80;94.50
22081;DHT22;11207;59.512;18.050;2023-07-13T15:53:22;22.80;94.20
22081;DHT22;11207;59.512;18.050;2023-07-13T15:55:48;22.70;95.20
22081;DHT22;11207;59.512;18.050;2023-07-13T15:58:15;22.60;95.00
22081;DHT22;11207;59.512;18.050;2023-07-13T16:00:41;22.50;95.20
22081;DHT22;11207;59.512;18.050;2023-07-13T16:03:07;22.60;95.00
22081;DHT22;11207;59.512;18.050;2023-07-13T16:05:33;22.70;94.90
22081;DHT22;11207;59.512;18.050;2023-07-13T16:07:59;22.90;95.10
22081;DHT22;11207;59.512;18.050;2023-07-13T16:10:37;23.10;94.80